Airports

 

 

Airport Name Latest METAR Visual Conditions
Atlantic City Int. (ACY) N/A N/A
Baltimore International Airport (BWI) KBWI 121654Z VRB04KT 10SM BKN032TCU BKN250 32/24 A3001 RMK AO2 SLP160 TCU N T03170239 VFR
Washington National Airport (DCA) KDCA 121652Z 00000KT 10SM FEW038 FEW150 SCT250 31/24 A3003 RMK AO2 SLP168 CB DSNT S T03110244 VFR
Dulles International Airport (IAD) KIAD 121652Z VRB04KT 10SM FEW027 SCT130 SCT250 31/23 A3003 RMK AO2 SLP167 T03060228 VFR
Norfolk International Airport (ORF) KORF 121651Z 20006KT 10SM SCT039 33/24 A3002 RMK AO2 SLP164 T03330239 VFR
Raleigh International Airport (RDU) KRDU 121651Z 18009KT 10SM SCT035TCU SCT250 32/23 A3004 RMK AO2 SLP165 TCU W-N-NE T03170228 VFR
Richmond International Airport (RIC) KRIC 121654Z 16005KT 10SM SCT034 BKN140 BKN230 32/23 A3002 RMK AO2 SLP167 CB DSNT NW T03170233 VFR
Roanoke Regional Airport (ROA) KROA 121654Z 10004KT 10SM SCT031 BKN110 28/22 A3009 RMK AO2 LTG DSNT S AND SW RAE13 SLP176 P0001 T02780217 VFR